Terminal Aerodrome Forecast
Issued by NWS

Home | Current Version | Previous Version | Text Only | Print | Product List | Glossary On
Versions: 1 2 3 4 5 6 7 8 9 10 11 12 13 14 15 16 17 18
311
FTAK31 PAJN 171621 AAB
TAFAJN
TAF AMD
PAJN 171621Z 1716/1812 09005KT P6SM -SHRA BKN030 OVC040
      TEMPO 1716/1718 5SM -SHRA BR OVC030
     FM171800 11010KT P6SM -SHRA OVC035
     FM172100 11015KT P6SM -SHRA OVC035=

USA.gov is the U.S. government's official web portal to all federal, state and local government web resources and services.